createdAt,value
2022-11-08T00:00:07.134Z,99.90
2022-11-08T00:02:35.469Z,99.90
2022-11-08T00:05:20.748Z,99.90
2022-11-08T00:08:06.229Z,99.90
2022-11-08T00:10:51.669Z,99.90
2022-11-08T00:13:37.168Z,99.90
2022-11-08T00:16:06.843Z,99.90
2022-11-08T00:18:34.733Z,99.90
2022-11-08T00:21:03.358Z,99.90
2022-11-08T00:23:31.403Z,99.90
2022-11-08T00:25:59.346Z,99.90
2022-11-08T00:28:27.235Z,99.90
2022-11-08T00:30:55.096Z,99.90
2022-11-08T00:33:24.308Z,99.90
2022-11-08T00:35:52.191Z,99.90
2022-11-08T00:38:20.250Z,99.90
2022-11-08T00:40:48.383Z,99.90
2022-11-08T00:43:16.335Z,99.90
2022-11-08T00:45:44.233Z,99.90
2022-11-08T00:48:12.112Z,99.90
2022-11-08T00:50:41.625Z,99.90
2022-11-08T00:53:09.515Z,99.90
2022-11-08T00:55:37.373Z,99.90
2022-11-08T00:58:05.263Z,99.90
2022-11-08T01:00:33.168Z,99.90
2022-11-08T01:03:18.524Z,99.90
2022-11-08T01:05:48.210Z,99.90
2022-11-08T01:08:16.896Z,99.90
2022-11-08T01:10:46.944Z,99.90
2022-11-08T01:13:15.202Z,99.90
2022-11-08T01:15:44.758Z,99.90
2022-11-08T01:18:14.060Z,99.90
2022-11-08T01:20:42.413Z,99.90
2022-11-08T01:23:12.292Z,99.90
2022-11-08T01:25:41.599Z,99.90
2022-11-08T01:28:09.796Z,99.90
2022-11-08T01:30:38.383Z,99.90
2022-11-08T01:33:06.933Z,99.90
2022-11-08T01:35:35.728Z,99.90
2022-11-08T01:38:05.464Z,99.90
2022-11-08T01:40:35.724Z,99.90
2022-11-08T01:43:27.342Z,99.90
2022-11-08T01:46:44.777Z,99.90
2022-11-08T01:49:26.015Z,99.90
2022-11-08T01:52:00.474Z,99.90
2022-11-08T01:54:37.708Z,99.90
2022-11-08T01:57:11.957Z,99.90
2022-11-08T01:59:43.537Z,99.90
2022-11-08T02:02:13.353Z,99.90
2022-11-08T02:04:43.655Z,99.90
2022-11-08T02:07:13.984Z,99.90
2022-11-08T02:09:44.453Z,99.90
2022-11-08T02:12:14.615Z,99.90
2022-11-08T02:14:42.916Z,99.90
2022-11-08T02:17:10.934Z,99.90
2022-11-08T02:19:42.263Z,99.90
2022-11-08T02:22:27.180Z,99.90
2022-11-08T02:24:58.239Z,99.90
2022-11-08T02:27:26.164Z,99.90
2022-11-08T02:29:54.926Z,99.90
2022-11-08T02:32:23.018Z,99.90
2022-11-08T02:34:54.288Z,99.90
2022-11-08T02:37:24.284Z,99.90
2022-11-08T02:39:52.122Z,99.90
2022-11-08T02:42:22.142Z,99.90
2022-11-08T02:44:50.363Z,99.90
2022-11-08T02:47:18.146Z,99.90
2022-11-08T02:49:45.917Z,99.90
2022-11-08T02:52:13.714Z,99.90
2022-11-08T02:54:41.576Z,99.90
2022-11-08T02:57:09.425Z,99.90
2022-11-08T02:59:38.510Z,99.90
2022-11-08T03:02:06.598Z,99.90
2022-11-08T03:04:34.678Z,99.90
2022-11-08T03:07:02.441Z,99.90
2022-11-08T03:09:30.187Z,99.90
2022-11-08T03:11:57.940Z,99.90
2022-11-08T03:14:25.708Z,99.90
2022-11-08T03:16:54.771Z,99.90
2022-11-08T03:19:22.551Z,99.90
2022-11-08T03:21:50.316Z,99.90
2022-11-08T03:24:18.066Z,99.90
2022-11-08T03:26:45.808Z,99.90
2022-11-08T03:29:13.545Z,99.90
2022-11-08T03:31:41.806Z,99.90
2022-11-08T03:34:11.996Z,99.90
2022-11-08T03:36:39.899Z,99.90
2022-11-08T03:39:07.643Z,99.90
2022-11-08T03:41:35.432Z,99.90
2022-11-08T03:44:03.219Z,99.90
2022-11-08T03:46:31.455Z,99.90
2022-11-08T03:48:59.239Z,99.90
2022-11-08T03:51:28.375Z,99.90
2022-11-08T03:53:56.127Z,99.90
2022-11-08T03:56:25.055Z,99.90
2022-11-08T03:58:52.816Z,99.90
2022-11-08T04:01:20.646Z,99.90
2022-11-08T04:03:48.470Z,99.90
2022-11-08T04:06:16.225Z,99.90
2022-11-08T04:08:45.371Z,99.90
2022-11-08T04:11:30.667Z,99.90
2022-11-08T04:14:16.595Z,99.90
2022-11-08T04:16:44.462Z,99.90
2022-11-08T04:19:29.606Z,99.90
2022-11-08T04:21:57.696Z,99.90
2022-11-08T04:24:26.928Z,99.90
2022-11-08T04:26:55.435Z,99.90
2022-11-08T04:29:23.200Z,99.90
2022-11-08T04:31:50.940Z,99.90
2022-11-08T04:34:18.695Z,99.90
2022-11-08T04:36:46.504Z,99.90
2022-11-08T04:39:14.303Z,99.90
2022-11-08T04:41:43.911Z,99.90
2022-11-08T04:44:11.702Z,99.90
2022-11-08T04:46:39.472Z,99.90
2022-11-08T04:49:07.206Z,99.90
2022-11-08T04:51:35.268Z,99.90
2022-11-08T04:54:06.105Z,99.90
2022-11-08T04:56:34.416Z,99.90
2022-11-08T04:59:07.193Z,99.90
2022-11-08T05:01:37.440Z,99.90
2022-11-08T05:04:05.472Z,99.90
2022-11-08T05:06:33.491Z,99.90
2022-11-08T05:09:01.396Z,99.90
2022-11-08T05:11:30.586Z,99.90
2022-11-08T05:13:59.742Z,99.90
2022-11-08T05:16:30.352Z,99.90
2022-11-08T05:18:58.621Z,99.90
2022-11-08T05:21:44.823Z,99.90
2022-11-08T05:24:14.503Z,99.90
2022-11-08T05:26:44.037Z,99.90
2022-11-08T05:29:12.511Z,99.90
2022-11-08T05:31:41.900Z,99.90
2022-11-08T05:34:09.791Z,99.90
2022-11-08T05:36:37.618Z,99.90
2022-11-08T05:39:05.644Z,99.90
2022-11-08T05:41:33.390Z,99.90
2022-11-08T05:44:01.175Z,99.90
2022-11-08T05:46:28.897Z,99.90
2022-11-08T05:48:58.458Z,99.90
2022-11-08T05:51:26.244Z,99.90
2022-11-08T05:53:54.006Z,99.90
2022-11-08T05:56:21.772Z,99.90
2022-11-08T05:58:49.559Z,99.90
2022-11-08T06:01:19.011Z,99.90
2022-11-08T06:03:47.920Z,99.90
2022-11-08T06:06:18.437Z,99.90
2022-11-08T06:08:50.285Z,99.90
2022-11-08T06:11:21.525Z,99.90
2022-11-08T06:13:49.726Z,99.90
2022-11-08T06:16:19.160Z,99.90
2022-11-08T06:18:47.480Z,99.90
2022-11-08T06:21:18.823Z,99.90
2022-11-08T06:23:46.654Z,99.90
2022-11-08T06:26:14.437Z,99.90
2022-11-08T06:28:42.347Z,99.90
2022-11-08T06:31:10.160Z,99.90
2022-11-08T06:33:37.987Z,99.90
2022-11-08T06:36:07.822Z,99.90
2022-11-08T06:38:36.956Z,99.90
2022-11-08T06:41:04.843Z,99.90
2022-11-08T06:43:32.570Z,99.90
2022-11-08T06:46:02.094Z,99.90
2022-11-08T06:48:35.386Z,99.90
2022-11-08T06:51:04.627Z,99.90
2022-11-08T06:53:33.171Z,99.90
2022-11-08T06:56:02.633Z,99.90
2022-11-08T06:58:31.830Z,99.90
2022-11-08T07:01:03.272Z,99.90
2022-11-08T07:03:31.033Z,99.90
2022-11-08T07:05:58.839Z,99.90
2022-11-08T07:08:26.624Z,99.90
2022-11-08T07:10:55.277Z,99.90
2022-11-08T07:13:24.451Z,99.90
2022-11-08T07:15:52.273Z,99.90
2022-11-08T07:18:21.031Z,99.90
2022-11-08T07:20:49.057Z,99.90
2022-11-08T07:23:16.882Z,99.90
2022-11-08T07:25:44.797Z,99.90
2022-11-08T07:28:17.280Z,99.90
2022-11-08T07:30:47.180Z,99.90
2022-11-08T07:33:15.907Z,99.90
2022-11-08T07:35:46.282Z,99.90
2022-11-08T07:38:14.107Z,99.90
2022-11-08T07:40:41.929Z,99.90
2022-11-08T07:43:12.558Z,99.90
2022-11-08T07:45:41.584Z,99.90
2022-11-08T07:48:13.285Z,99.90
2022-11-08T07:50:42.618Z,99.90
2022-11-08T07:53:11.185Z,99.90
2022-11-08T07:55:40.141Z,99.90
2022-11-08T07:58:08.774Z,99.90
2022-11-08T08:00:37.872Z,99.90
2022-11-08T08:03:07.850Z,99.90
2022-11-08T08:05:39.258Z,99.90
2022-11-08T08:08:08.028Z,99.90
2022-11-08T08:10:36.619Z,99.90
2022-11-08T08:13:05.006Z,99.90
2022-11-08T08:15:33.335Z,99.90
2022-11-08T08:18:02.112Z,99.90
2022-11-08T08:20:30.503Z,99.90
2022-11-08T08:22:59.919Z,99.90
2022-11-08T08:25:29.100Z,99.90
2022-11-08T08:27:59.718Z,99.70
2022-11-08T08:30:27.528Z,97.90
2022-11-08T08:33:26.875Z,96.40
2022-11-08T08:35:52.670Z,94.90
2022-11-08T08:38:21.972Z,94.20
2022-11-08T08:40:49.748Z,94.30
2022-11-08T08:43:18.013Z,95.50
2022-11-08T08:45:45.995Z,93.50
2022-11-08T08:48:13.947Z,91.70
2022-11-08T08:50:42.354Z,91.20
2022-11-08T08:53:11.329Z,89.40
2022-11-08T08:55:41.608Z,88.30
2022-11-08T08:58:09.591Z,89.10
2022-11-08T09:03:25.605Z,90.40
2022-11-08T09:05:53.375Z,92.20
2022-11-08T09:08:21.128Z,92.80
2022-11-08T09:10:55.486Z,92.40
2022-11-08T09:13:23.828Z,92.80
2022-11-08T09:15:51.654Z,92.90
2022-11-08T09:18:19.888Z,92.50
2022-11-08T09:20:47.780Z,92.60
2022-11-08T09:23:17.888Z,92.60
2022-11-08T09:25:46.106Z,91.90
2022-11-08T09:28:15.315Z,88.80
2022-11-08T09:30:43.072Z,87.30
2022-11-08T09:33:10.942Z,86.40
2022-11-08T09:35:38.742Z,85.90
2022-11-08T09:38:07.290Z,88.50
2022-11-08T09:40:40.409Z,90.20
2022-11-08T09:43:31.080Z,88.50
2022-11-08T09:45:58.991Z,90.00
2022-11-08T09:48:30.813Z,91.30
2022-11-08T09:51:01.584Z,91.20
2022-11-08T09:53:38.780Z,91.00
2022-11-08T09:56:12.988Z,90.10
2022-11-08T09:58:48.230Z,87.00
2022-11-08T10:01:16.282Z,85.90
2022-11-08T10:03:48.705Z,84.70
2022-11-08T10:06:42.361Z,77.30
2022-11-08T10:09:23.187Z,72.30
2022-11-08T10:12:02.239Z,67.30
2022-11-08T10:14:53.744Z,64.30
2022-11-08T10:17:45.090Z,63.60
2022-11-08T10:20:24.153Z,61.60
2022-11-08T10:23:00.095Z,63.60
2022-11-08T10:25:37.051Z,63.40
2022-11-08T10:28:07.170Z,64.20
2022-11-08T10:30:39.509Z,67.50
2022-11-08T10:33:18.002Z,67.90
2022-11-08T10:35:49.480Z,63.50
2022-11-08T10:38:20.312Z,65.00
2022-11-08T10:40:57.189Z,63.60
2022-11-08T10:43:30.154Z,60.80
2022-11-08T10:45:59.262Z,61.10
2022-11-08T10:48:27.163Z,57.90
2022-11-08T10:50:55.520Z,55.60
2022-11-08T10:53:27.381Z,56.00
2022-11-08T10:56:01.175Z,57.90
2022-11-08T10:58:31.740Z,58.60
2022-11-08T11:01:07.117Z,59.30
2022-11-08T11:03:35.092Z,59.20
2022-11-08T11:06:05.026Z,58.60
2022-11-08T11:08:33.429Z,57.80
2022-11-08T11:11:23.326Z,56.40
2022-11-08T11:14:07.743Z,54.50
2022-11-08T11:16:38.763Z,50.30
2022-11-08T11:19:07.527Z,50.00
2022-11-08T11:21:37.987Z,49.90
2022-11-08T11:24:12.034Z,48.30
2022-11-08T11:26:45.083Z,45.70
2022-11-08T11:29:19.618Z,46.50
2022-11-08T11:31:50.692Z,45.90
2022-11-08T11:34:33.895Z,44.80
2022-11-08T11:37:07.747Z,44.50
2022-11-08T11:39:42.533Z,43.90
2022-11-08T11:42:39.331Z,45.00
2022-11-08T11:45:11.141Z,44.30
2022-11-08T11:47:47.580Z,45.40
2022-11-08T11:50:25.220Z,44.20
2022-11-08T11:52:52.968Z,42.50
2022-11-08T11:55:25.328Z,42.50
2022-11-08T11:58:06.192Z,44.60
2022-11-08T12:00:36.437Z,43.70
2022-11-08T12:03:31.651Z,44.40
2022-11-08T12:06:21.119Z,44.30
2022-11-08T12:09:03.040Z,43.40
2022-11-08T12:11:39.775Z,43.60
2022-11-08T12:14:38.547Z,45.00
2022-11-08T12:17:33.535Z,49.00
2022-11-08T12:20:22.782Z,50.20
2022-11-08T12:23:10.966Z,49.70
2022-11-08T12:25:46.359Z,49.30
2022-11-08T12:28:33.208Z,52.00
2022-11-08T12:31:15.107Z,54.00
2022-11-08T12:33:57.760Z,55.90
2022-11-08T12:36:35.348Z,54.00
2022-11-08T12:39:13.579Z,55.00
2022-11-08T12:41:54.345Z,54.90
2022-11-08T12:44:42.825Z,53.70
2022-11-08T12:47:24.771Z,54.50
2022-11-08T12:49:59.999Z,55.40
2022-11-08T12:52:42.204Z,54.60
2022-11-08T12:55:17.255Z,50.40
2022-11-08T12:57:46.875Z,52.20
2022-11-08T13:00:18.420Z,53.30
2022-11-08T13:02:58.771Z,52.90
2022-11-08T13:05:29.472Z,52.60
2022-11-08T13:08:05.656Z,52.50
2022-11-08T13:10:43.221Z,52.70
2022-11-08T13:13:28.343Z,55.00
2022-11-08T13:16:15.352Z,57.20
2022-11-08T13:18:49.547Z,56.70
2022-11-08T13:21:38.154Z,53.70
2022-11-08T13:24:44.777Z,54.20
2022-11-08T13:27:35.296Z,51.20
2022-11-08T13:30:40.272Z,51.00
2022-11-08T13:33:21.868Z,51.70
2022-11-08T13:36:00.815Z,53.60
2022-11-08T13:38:38.884Z,56.10
2022-11-08T13:41:16.844Z,58.10
2022-11-08T13:43:47.182Z,59.50
2022-11-08T13:46:49.566Z,61.30
2022-11-08T13:49:20.059Z,61.70
2022-11-08T13:51:48.239Z,63.50
2022-11-08T13:54:46.204Z,65.70
2022-11-08T13:57:20.090Z,64.90
2022-11-08T13:59:59.590Z,64.00
2022-11-08T14:02:45.263Z,65.80
2022-11-08T14:05:46.060Z,68.00
2022-11-08T14:08:25.085Z,70.80
2022-11-08T14:11:23.180Z,72.40
2022-11-08T14:14:35.766Z,72.30
2022-11-08T14:17:42.026Z,73.50
2022-11-08T14:20:20.277Z,74.50
2022-11-08T14:22:50.395Z,77.10
2022-11-08T14:25:23.775Z,79.10
2022-11-08T14:27:51.659Z,81.30
2022-11-08T14:30:21.158Z,81.20
2022-11-08T14:33:05.347Z,82.20
2022-11-08T14:35:33.271Z,84.10
2022-11-08T14:38:01.128Z,86.70
2022-11-08T14:40:29.922Z,89.00
2022-11-08T14:42:58.312Z,90.70
2022-11-08T14:45:30.123Z,92.10
2022-11-08T14:48:04.896Z,92.70
2022-11-08T14:50:35.162Z,93.30
2022-11-08T14:53:22.999Z,94.00
2022-11-08T14:56:02.195Z,94.90
2022-11-08T14:58:30.679Z,96.00
2022-11-08T15:00:59.911Z,96.90
2022-11-08T15:03:32.334Z,98.00
2022-11-08T15:06:02.554Z,98.60
2022-11-08T15:08:33.322Z,99.20
2022-11-08T15:11:04.060Z,99.90
2022-11-08T15:13:35.164Z,99.90
2022-11-08T15:16:05.818Z,99.90
2022-11-08T15:18:38.732Z,99.90
2022-11-08T15:21:08.290Z,99.90
2022-11-08T15:23:43.286Z,99.90
2022-11-08T15:26:26.066Z,99.90
2022-11-08T15:29:02.967Z,99.90
2022-11-08T15:31:36.207Z,99.90
2022-11-08T15:34:05.544Z,99.90
2022-11-08T15:36:35.322Z,99.90
2022-11-08T15:39:05.312Z,99.90
2022-11-08T15:41:36.725Z,99.90
2022-11-08T15:44:16.368Z,99.90
2022-11-08T15:46:44.879Z,99.90
2022-11-08T15:49:22.085Z,99.90
2022-11-08T15:51:51.005Z,99.90
2022-11-08T15:54:19.971Z,99.90
2022-11-08T15:56:49.253Z,99.90
2022-11-08T15:59:21.238Z,99.90
2022-11-08T16:01:54.991Z,99.90
2022-11-08T16:04:24.535Z,99.90
2022-11-08T16:06:52.631Z,99.90
2022-11-08T16:09:20.472Z,99.90
2022-11-08T16:11:49.251Z,99.90
2022-11-08T16:14:20.516Z,99.90
2022-11-08T16:16:48.573Z,99.90
2022-11-08T16:19:20.317Z,99.90
2022-11-08T16:21:49.534Z,99.90
2022-11-08T16:24:17.367Z,99.90
2022-11-08T16:26:46.473Z,99.90
2022-11-08T16:29:21.004Z,99.90
2022-11-08T16:31:49.253Z,99.90
2022-11-08T16:34:17.070Z,99.90
2022-11-08T16:36:46.017Z,99.90
2022-11-08T16:39:18.307Z,99.90
2022-11-08T16:41:46.220Z,99.90
2022-11-08T16:44:14.064Z,99.90
2022-11-08T16:46:42.539Z,99.90
2022-11-08T16:49:21.138Z,99.90
2022-11-08T16:51:49.291Z,99.90
2022-11-08T16:54:21.297Z,99.90
2022-11-08T16:56:49.075Z,99.90
2022-11-08T16:59:16.846Z,99.90
2022-11-08T17:01:45.315Z,99.90
2022-11-08T17:04:13.230Z,99.90
2022-11-08T17:06:41.108Z,99.90
2022-11-08T17:09:08.927Z,99.90
2022-11-08T17:11:39.607Z,99.90
2022-11-08T17:14:07.503Z,99.90
2022-11-08T17:16:35.247Z,99.90
2022-11-08T17:19:04.533Z,99.90
2022-11-08T17:21:47.544Z,99.90
2022-11-08T17:24:21.262Z,99.90
2022-11-08T17:26:51.516Z,99.90
2022-11-08T17:29:19.258Z,99.90
2022-11-08T17:31:47.174Z,99.90
2022-11-08T17:34:14.964Z,99.90
2022-11-08T17:36:43.081Z,99.90
2022-11-08T17:39:13.877Z,99.90
2022-11-08T17:41:41.879Z,99.90
2022-11-08T17:44:10.964Z,99.90
2022-11-08T17:46:38.755Z,99.90
2022-11-08T17:49:07.003Z,99.90
2022-11-08T17:51:34.804Z,99.90
2022-11-08T17:54:02.567Z,99.90
2022-11-08T17:56:30.798Z,99.90
2022-11-08T17:58:58.591Z,99.90
2022-11-08T18:01:27.813Z,99.90
2022-11-08T18:03:55.719Z,99.90
2022-11-08T18:06:23.563Z,99.90
2022-11-08T18:08:51.347Z,99.90
2022-11-08T18:11:19.392Z,99.90
2022-11-08T18:13:47.147Z,99.90
2022-11-08T18:16:17.430Z,99.90
2022-11-08T18:18:47.500Z,99.90
2022-11-08T18:21:16.644Z,99.90
2022-11-08T18:23:46.179Z,99.90
2022-11-08T18:26:14.840Z,99.90
2022-11-08T18:28:44.704Z,99.90
2022-11-08T18:31:14.414Z,99.90
2022-11-08T18:33:42.925Z,99.90
2022-11-08T18:36:15.692Z,99.90
2022-11-08T18:38:45.576Z,99.90
2022-11-08T18:41:15.288Z,99.90
2022-11-08T18:43:43.183Z,99.90
2022-11-08T18:46:14.092Z,99.90
2022-11-08T18:48:42.091Z,99.90
2022-11-08T18:51:13.231Z,99.90
2022-11-08T18:53:41.729Z,99.90
2022-11-08T18:56:11.201Z,99.90
2022-11-08T18:58:39.397Z,99.90
2022-11-08T19:01:07.924Z,99.90
2022-11-08T19:03:35.767Z,99.90
2022-11-08T19:06:03.647Z,99.90
2022-11-08T19:08:33.831Z,99.90
2022-11-08T19:11:03.884Z,99.90
2022-11-08T19:13:34.768Z,99.90
2022-11-08T19:16:04.036Z,99.90
2022-11-08T19:18:32.607Z,99.90
2022-11-08T19:21:02.991Z,99.90
2022-11-08T19:23:31.035Z,99.90
2022-11-08T19:26:02.368Z,99.90
2022-11-08T19:28:33.752Z,99.90
2022-11-08T19:31:01.929Z,99.90
2022-11-08T19:33:31.566Z,99.90
2022-11-08T19:36:02.554Z,99.90
2022-11-08T19:38:32.650Z,99.90
2022-11-08T19:41:03.773Z,99.90
2022-11-08T19:43:31.625Z,99.90
2022-11-08T19:46:03.371Z,99.90
2022-11-08T19:48:31.997Z,99.90
2022-11-08T19:51:02.040Z,99.90
2022-11-08T19:53:29.847Z,99.90
2022-11-08T19:56:03.516Z,99.90
2022-11-08T19:58:32.796Z,99.90
2022-11-08T20:01:00.594Z,99.90
2022-11-08T20:03:28.370Z,99.90
2022-11-08T20:05:56.134Z,99.90
2022-11-08T20:08:24.520Z,99.90
2022-11-08T20:10:52.288Z,99.90
2022-11-08T20:13:21.480Z,99.90
2022-11-08T20:15:49.379Z,99.90
2022-11-08T20:18:18.040Z,99.90
2022-11-08T20:20:46.324Z,99.90
2022-11-08T20:23:16.399Z,99.90
2022-11-08T20:25:44.372Z,99.90
2022-11-08T20:28:12.248Z,99.90
2022-11-08T20:30:41.409Z,99.90
2022-11-08T20:33:09.147Z,99.90
2022-11-08T20:35:37.954Z,99.90
2022-11-08T20:38:05.695Z,99.90
2022-11-08T20:40:33.432Z,99.90
2022-11-08T20:43:01.178Z,99.90
2022-11-08T20:45:28.926Z,99.90
2022-11-08T20:47:58.010Z,99.90
2022-11-08T20:50:25.769Z,99.90
2022-11-08T20:52:53.508Z,99.90
2022-11-08T20:55:24.011Z,99.90
2022-11-08T20:57:51.768Z,99.90
2022-11-08T21:00:32.915Z,99.90
2022-11-08T21:03:08.773Z,99.90
2022-11-08T21:05:36.526Z,99.90
2022-11-08T21:08:55.957Z,99.90
2022-11-08T21:10:56.126Z,99.90
2022-11-08T21:13:26.543Z,99.90
2022-11-08T21:15:54.475Z,99.90
2022-11-08T21:18:23.589Z,99.90
2022-11-08T21:20:52.983Z,99.90
2022-11-08T21:23:20.759Z,99.90
2022-11-08T21:25:51.972Z,99.90
2022-11-08T21:28:19.981Z,99.90
2022-11-08T21:30:48.353Z,99.90
2022-11-08T21:33:16.108Z,99.90
2022-11-08T21:35:45.188Z,99.90
2022-11-08T21:38:12.939Z,99.90
2022-11-08T21:40:40.677Z,99.90
2022-11-08T21:43:08.449Z,99.90
2022-11-08T21:45:36.225Z,99.90
2022-11-08T21:48:04.240Z,99.90
2022-11-08T21:50:33.663Z,99.90
2022-11-08T21:53:03.732Z,99.90
2022-11-08T21:55:32.788Z,99.90
2022-11-08T21:58:02.232Z,99.90
2022-11-08T22:00:30.401Z,99.90
2022-11-08T22:02:58.324Z,99.90
2022-11-08T22:05:26.084Z,99.90
2022-11-08T22:07:53.863Z,99.90
2022-11-08T22:10:22.998Z,99.90
2022-11-08T22:12:50.781Z,99.90
2022-11-08T22:15:18.660Z,99.90
2022-11-08T22:18:14.329Z,99.90
2022-11-08T22:20:34.142Z,99.90
2022-11-08T22:23:07.800Z,99.90
2022-11-08T22:25:38.027Z,99.90
2022-11-08T22:28:06.190Z,99.90
2022-11-08T22:30:33.981Z,99.90
2022-11-08T22:33:02.283Z,99.90
2022-11-08T22:35:30.064Z,99.90
2022-11-08T22:37:57.856Z,99.90
2022-11-08T22:40:25.624Z,99.90
2022-11-08T22:42:54.710Z,99.90
2022-11-08T22:45:22.468Z,99.90
2022-11-08T22:47:50.224Z,99.90
2022-11-08T22:50:18.216Z,99.90
2022-11-08T22:52:46.073Z,99.90
2022-11-08T22:55:13.805Z,99.90
2022-11-08T22:57:41.602Z,99.90
2022-11-08T23:00:12.899Z,99.90
2022-11-08T23:02:40.648Z,99.90
2022-11-08T23:05:09.116Z,99.90
2022-11-08T23:07:36.897Z,99.90
2022-11-08T23:10:05.227Z,99.90
2022-11-08T23:12:50.499Z,99.90
2022-11-08T23:15:36.982Z,99.90
2022-11-08T23:18:04.944Z,99.90
2022-11-08T23:20:51.065Z,99.90
2022-11-08T23:23:36.625Z,99.90
2022-11-08T23:26:04.563Z,99.90
2022-11-08T23:28:49.913Z,99.90
2022-11-08T23:31:37.671Z,99.90
2022-11-08T23:34:05.847Z,99.90
2022-11-08T23:36:33.664Z,99.90
2022-11-08T23:39:01.467Z,99.90
2022-11-08T23:41:46.860Z,99.90
2022-11-08T23:44:27.523Z,99.90
2022-11-08T23:46:58.987Z,99.90
2022-11-08T23:49:27.589Z,99.90
2022-11-08T23:51:55.860Z,99.90
2022-11-08T23:54:23.676Z,99.90
2022-11-08T23:56:52.366Z,99.90
2022-11-08T23:59:20.315Z,99.90
